sensor_id;sensor_type;location;lat;lon;timestamp;pressure;altitude;pressure_sealevel;temperature;humidity
47983;BME280;33751;50.816;-1.214;2022-11-20T00:00:15;101131.86;;;9.33;100.00
47983;BME280;33751;50.816;-1.214;2022-11-20T00:02:43;101132.18;;;9.32;100.00
47983;BME280;33751;50.816;-1.214;2022-11-20T00:05:10;101125.47;;;8.88;100.00
47983;BME280;33751;50.816;-1.214;2022-11-20T00:07:37;101118.07;;;9.40;100.00
47983;BME280;33751;50.816;-1.214;2022-11-20T00:10:05;101118.28;;;9.08;100.00
47983;BME280;33751;50.816;-1.214;2022-11-20T00:12:32;101117.88;;;9.53;100.00
47983;BME280;33751;50.816;-1.214;2022-11-20T00:14:58;101116.89;;;9.41;100.00
47983;BME280;33751;50.816;-1.214;2022-11-20T00:17:25;101114.41;;;9.10;100.00
47983;BME280;33751;50.816;-1.214;2022-11-20T00:19:52;101107.39;;;9.69;100.00
47983;BME280;33751;50.816;-1.214;2022-11-20T00:22:19;101101.74;;;9.46;100.00
47983;BME280;33751;50.816;-1.214;2022-11-20T00:24:46;101103.42;;;9.32;100.00
47983;BME280;33751;50.816;-1.214;2022-11-20T00:27:13;101100.34;;;9.83;100.00
47983;BME280;33751;50.816;-1.214;2022-11-20T00:29:40;101093.07;;;9.21;100.00
47983;BME280;33751;50.816;-1.214;2022-11-20T00:32:07;101090.36;;;9.24;100.00
47983;BME280;33751;50.816;-1.214;2022-11-20T00:34:34;101086.06;;;9.25;100.00
47983;BME280;33751;50.816;-1.214;2022-11-20T00:37:00;101086.71;;;9.76;100.00
47983;BME280;33751;50.816;-1.214;2022-11-20T00:39:27;101087.93;;;9.54;100.00
47983;BME280;33751;50.816;-1.214;2022-11-20T00:41:54;101081.71;;;9.37;100.00
47983;BME280;33751;50.816;-1.214;2022-11-20T00:44:21;101078.33;;;9.20;100.00
47983;BME280;33751;50.816;-1.214;2022-11-20T00:46:48;101079.23;;;9.69;100.00
47983;BME280;33751;50.816;-1.214;2022-11-20T00:49:15;101076.70;;;9.09;100.00
47983;BME280;33751;50.816;-1.214;2022-11-20T00:51:42;101074.16;;;9.52;100.00
47983;BME280;33751;50.816;-1.214;2022-11-20T00:54:09;101075.60;;;9.26;100.00
47983;BME280;33751;50.816;-1.214;2022-11-20T00:56:36;101075.09;;;9.38;100.00
47983;BME280;33751;50.816;-1.214;2022-11-20T00:59:02;101069.84;;;9.59;100.00
47983;BME280;33751;50.816;-1.214;2022-11-20T01:01:30;101065.25;;;9.29;100.00
47983;BME280;33751;50.816;-1.214;2022-11-20T01:03:57;101073.31;;;9.49;100.00
47983;BME280;33751;50.816;-1.214;2022-11-20T01:06:26;101089.45;;;9.61;100.00
47983;BME280;33751;50.816;-1.214;2022-11-20T01:08:55;101084.34;;;10.17;100.00
47983;BME280;33751;50.816;-1.214;2022-11-20T01:11:25;101077.47;;;10.69;100.00
47983;BME280;33751;50.816;-1.214;2022-11-20T01:13:53;101073.45;;;10.99;100.00
47983;BME280;33751;50.816;-1.214;2022-11-20T01:16:22;101067.61;;;11.34;100.00
47983;BME280;33751;50.816;-1.214;2022-11-20T01:18:51;101060.58;;;11.18;100.00
47983;BME280;33751;50.816;-1.214;2022-11-20T01:21:21;101057.78;;;11.19;100.00
47983;BME280;33751;50.816;-1.214;2022-11-20T01:23:49;101055.70;;;11.83;100.00
47983;BME280;33751;50.816;-1.214;2022-11-20T01:26:18;101050.93;;;11.52;100.00
47983;BME280;33751;50.816;-1.214;2022-11-20T01:28:46;101045.26;;;11.66;100.00
47983;BME280;33751;50.816;-1.214;2022-11-20T01:31:14;101033.29;;;11.73;100.00
47983;BME280;33751;50.816;-1.214;2022-11-20T01:33:42;101021.93;;;11.50;100.00
47983;BME280;33751;50.816;-1.214;2022-11-20T01:36:10;101019.70;;;11.92;100.00
47983;BME280;33751;50.816;-1.214;2022-11-20T01:38:38;101011.24;;;11.44;100.00
47983;BME280;33751;50.816;-1.214;2022-11-20T01:41:05;101007.35;;;12.09;100.00
47983;BME280;33751;50.816;-1.214;2022-11-20T01:43:32;101000.86;;;11.82;100.00
47983;BME280;33751;50.816;-1.214;2022-11-20T01:46:15;100992.44;;;11.84;100.00
47983;BME280;33751;50.816;-1.214;2022-11-20T01:48:48;100989.78;;;12.10;100.00
47983;BME280;33751;50.816;-1.214;2022-11-20T01:51:21;100988.09;;;12.08;100.00
47983;BME280;33751;50.816;-1.214;2022-11-20T01:53:52;100987.20;;;11.64;100.00
47983;BME280;33751;50.816;-1.214;2022-11-20T01:56:20;100984.01;;;12.17;100.00
47983;BME280;33751;50.816;-1.214;2022-11-20T01:58:50;100986.08;;;11.99;100.00
47983;BME280;33751;50.816;-1.214;2022-11-20T02:01:20;100985.09;;;12.50;100.00
47983;BME280;33751;50.816;-1.214;2022-11-20T02:03:49;100988.63;;;12.35;100.00
47983;BME280;33751;50.816;-1.214;2022-11-20T02:06:20;100986.41;;;12.29;100.00
47983;BME280;33751;50.816;-1.214;2022-11-20T02:08:50;100984.12;;;12.16;100.00
47983;BME280;33751;50.816;-1.214;2022-11-20T02:11:18;100985.25;;;12.06;100.00
47983;BME280;33751;50.816;-1.214;2022-11-20T02:13:45;100979.71;;;12.08;100.00
47983;BME280;33751;50.816;-1.214;2022-11-20T02:16:16;100977.41;;;11.97;100.00
47983;BME280;33751;50.816;-1.214;2022-11-20T02:18:44;100966.61;;;12.13;100.00
47983;BME280;33751;50.816;-1.214;2022-11-20T02:21:21;100961.58;;;11.92;100.00
47983;BME280;33751;50.816;-1.214;2022-11-20T02:24:00;100955.30;;;11.92;100.00
47983;BME280;33751;50.816;-1.214;2022-11-20T02:26:30;100944.88;;;11.90;100.00
47983;BME280;33751;50.816;-1.214;2022-11-20T02:28:58;100941.38;;;12.18;100.00
47983;BME280;33751;50.816;-1.214;2022-11-20T02:31:27;100936.13;;;12.10;100.00
47983;BME280;33751;50.816;-1.214;2022-11-20T02:33:55;100932.26;;;12.60;100.00
47983;BME280;33751;50.816;-1.214;2022-11-20T02:36:24;100934.04;;;12.10;100.00
47983;BME280;33751;50.816;-1.214;2022-11-20T02:38:52;100931.53;;;12.31;100.00
47983;BME280;33751;50.816;-1.214;2022-11-20T02:41:19;100931.31;;;12.05;100.00
47983;BME280;33751;50.816;-1.214;2022-11-20T02:43:46;100923.41;;;12.20;100.00
47983;BME280;33751;50.816;-1.214;2022-11-20T02:46:12;100917.76;;;11.59;100.00
47983;BME280;33751;50.816;-1.214;2022-11-20T02:48:39;100914.24;;;11.82;100.00
47983;BME280;33751;50.816;-1.214;2022-11-20T02:51:05;100916.23;;;11.70;100.00
47983;BME280;33751;50.816;-1.214;2022-11-20T02:53:32;100917.51;;;11.96;100.00
47983;BME280;33751;50.816;-1.214;2022-11-20T02:55:59;100910.17;;;12.10;100.00
47983;BME280;33751;50.816;-1.214;2022-11-20T02:58:25;100901.76;;;12.32;100.00
47983;BME280;33751;50.816;-1.214;2022-11-20T03:00:52;100893.29;;;12.04;100.00
47983;BME280;33751;50.816;-1.214;2022-11-20T03:03:19;100887.34;;;11.91;100.00
47983;BME280;33751;50.816;-1.214;2022-11-20T03:05:46;100879.69;;;11.95;100.00
47983;BME280;33751;50.816;-1.214;2022-11-20T03:08:12;100875.74;;;11.76;100.00
47983;BME280;33751;50.816;-1.214;2022-11-20T03:10:39;100867.98;;;11.87;100.00
47983;BME280;33751;50.816;-1.214;2022-11-20T03:13:06;100869.68;;;11.79;100.00
47983;BME280;33751;50.816;-1.214;2022-11-20T03:15:33;100870.47;;;12.07;100.00
47983;BME280;33751;50.816;-1.214;2022-11-20T03:17:59;100871.63;;;11.58;100.00
47983;BME280;33751;50.816;-1.214;2022-11-20T03:20:26;100865.92;;;12.10;100.00
47983;BME280;33751;50.816;-1.214;2022-11-20T03:22:53;100864.97;;;12.06;100.00
47983;BME280;33751;50.816;-1.214;2022-11-20T03:25:21;100858.79;;;12.04;100.00
47983;BME280;33751;50.816;-1.214;2022-11-20T03:27:48;100853.00;;;12.28;100.00
47983;BME280;33751;50.816;-1.214;2022-11-20T03:30:14;100848.73;;;12.47;100.00
47983;BME280;33751;50.816;-1.214;2022-11-20T03:32:41;100847.73;;;12.09;100.00
47983;BME280;33751;50.816;-1.214;2022-11-20T03:35:09;100840.12;;;12.22;100.00
47983;BME280;33751;50.816;-1.214;2022-11-20T03:37:35;100836.46;;;11.98;100.00
47983;BME280;33751;50.816;-1.214;2022-11-20T03:40:03;100828.08;;;12.12;100.00
47983;BME280;33751;50.816;-1.214;2022-11-20T03:42:29;100829.86;;;11.75;100.00
47983;BME280;33751;50.816;-1.214;2022-11-20T03:44:56;100823.81;;;12.20;100.00
47983;BME280;33751;50.816;-1.214;2022-11-20T03:47:22;100821.73;;;11.57;100.00
47983;BME280;33751;50.816;-1.214;2022-11-20T03:49:50;100815.26;;;12.01;100.00
47983;BME280;33751;50.816;-1.214;2022-11-20T03:52:16;100811.72;;;12.09;100.00
47983;BME280;33751;50.816;-1.214;2022-11-20T03:54:43;100804.11;;;11.89;100.00
47983;BME280;33751;50.816;-1.214;2022-11-20T03:57:09;100801.16;;;12.10;100.00
47983;BME280;33751;50.816;-1.214;2022-11-20T03:59:36;100792.47;;;12.11;100.00
47983;BME280;33751;50.816;-1.214;2022-11-20T04:02:03;100788.66;;;11.96;100.00
47983;BME280;33751;50.816;-1.214;2022-11-20T04:04:30;100783.68;;;11.98;100.00
47983;BME280;33751;50.816;-1.214;2022-11-20T04:06:56;100785.61;;;12.01;100.00
47983;BME280;33751;50.816;-1.214;2022-11-20T04:09:23;100784.94;;;11.72;100.00
47983;BME280;33751;50.816;-1.214;2022-11-20T04:11:50;100780.59;;;11.67;100.00
47983;BME280;33751;50.816;-1.214;2022-11-20T04:14:17;100776.83;;;12.24;100.00
47983;BME280;33751;50.816;-1.214;2022-11-20T04:16:44;100770.95;;;12.42;100.00
47983;BME280;33751;50.816;-1.214;2022-11-20T04:19:13;100770.60;;;12.28;100.00
47983;BME280;33751;50.816;-1.214;2022-11-20T04:21:40;100763.19;;;12.15;100.00
47983;BME280;33751;50.816;-1.214;2022-11-20T04:24:08;100760.29;;;11.99;100.00
47983;BME280;33751;50.816;-1.214;2022-11-20T04:26:35;100755.79;;;12.46;100.00
47983;BME280;33751;50.816;-1.214;2022-11-20T04:29:01;100756.76;;;11.99;100.00
47983;BME280;33751;50.816;-1.214;2022-11-20T04:31:29;100754.90;;;12.14;100.00
47983;BME280;33751;50.816;-1.214;2022-11-20T04:33:59;100751.48;;;12.29;100.00
47983;BME280;33751;50.816;-1.214;2022-11-20T04:36:28;100752.45;;;12.35;100.00
47983;BME280;33751;50.816;-1.214;2022-11-20T04:38:57;100746.86;;;12.12;100.00
47983;BME280;33751;50.816;-1.214;2022-11-20T04:41:27;100743.82;;;12.45;100.00
47983;BME280;33751;50.816;-1.214;2022-11-20T04:43:57;100746.03;;;12.66;100.00
47983;BME280;33751;50.816;-1.214;2022-11-20T04:46:25;100747.08;;;12.61;100.00
47983;BME280;33751;50.816;-1.214;2022-11-20T04:48:53;100741.79;;;12.54;100.00
47983;BME280;33751;50.816;-1.214;2022-11-20T04:51:20;100737.55;;;12.26;100.00
47983;BME280;33751;50.816;-1.214;2022-11-20T04:53:46;100728.04;;;12.70;100.00
47983;BME280;33751;50.816;-1.214;2022-11-20T04:56:13;100721.36;;;12.67;100.00
47983;BME280;33751;50.816;-1.214;2022-11-20T04:58:41;100715.47;;;12.90;100.00
47983;BME280;33751;50.816;-1.214;2022-11-20T05:01:10;100708.55;;;12.37;100.00
47983;BME280;33751;50.816;-1.214;2022-11-20T05:03:38;100705.87;;;12.43;100.00
47983;BME280;33751;50.816;-1.214;2022-11-20T05:06:06;100694.14;;;12.49;100.00
47983;BME280;33751;50.816;-1.214;2022-11-20T05:08:34;100686.87;;;12.67;100.00
47983;BME280;33751;50.816;-1.214;2022-11-20T05:11:01;100675.38;;;12.34;100.00
47983;BME280;33751;50.816;-1.214;2022-11-20T05:13:28;100675.87;;;12.38;100.00
47983;BME280;33751;50.816;-1.214;2022-11-20T05:16:00;100672.65;;;12.41;100.00
47983;BME280;33751;50.816;-1.214;2022-11-20T05:18:27;100664.10;;;12.53;100.00
47983;BME280;33751;50.816;-1.214;2022-11-20T05:20:55;100660.81;;;12.77;100.00
47983;BME280;33751;50.816;-1.214;2022-11-20T05:23:22;100655.17;;;12.65;100.00
47983;BME280;33751;50.816;-1.214;2022-11-20T05:25:52;100656.75;;;12.70;100.00
47983;BME280;33751;50.816;-1.214;2022-11-20T05:28:19;100648.35;;;12.94;100.00
47983;BME280;33751;50.816;-1.214;2022-11-20T05:30:46;100649.15;;;13.13;100.00
47983;BME280;33751;50.816;-1.214;2022-11-20T05:33:13;100644.86;;;12.75;100.00
47983;BME280;33751;50.816;-1.214;2022-11-20T05:35:40;100637.77;;;12.77;100.00
47983;BME280;33751;50.816;-1.214;2022-11-20T05:38:06;100630.08;;;13.10;100.00
47983;BME280;33751;50.816;-1.214;2022-11-20T05:40:32;100628.85;;;13.23;100.00
47983;BME280;33751;50.816;-1.214;2022-11-20T05:43:00;100627.84;;;12.90;100.00
47983;BME280;33751;50.816;-1.214;2022-11-20T05:45:27;100622.77;;;13.16;100.00
47983;BME280;33751;50.816;-1.214;2022-11-20T05:47:58;100616.83;;;12.92;100.00
47983;BME280;33751;50.816;-1.214;2022-11-20T05:50:24;100603.41;;;13.47;100.00
47983;BME280;33751;50.816;-1.214;2022-11-20T05:52:51;100607.43;;;13.06;100.00
47983;BME280;33751;50.816;-1.214;2022-11-20T05:55:18;100611.59;;;13.08;100.00
47983;BME280;33751;50.816;-1.214;2022-11-20T05:57:45;100605.84;;;13.05;100.00
47983;BME280;33751;50.816;-1.214;2022-11-20T06:00:13;100602.78;;;13.25;100.00
47983;BME280;33751;50.816;-1.214;2022-11-20T06:02:40;100591.55;;;13.52;100.00
47983;BME280;33751;50.816;-1.214;2022-11-20T06:05:08;100588.04;;;13.31;100.00
47983;BME280;33751;50.816;-1.214;2022-11-20T06:07:34;100587.63;;;13.49;100.00
47983;BME280;33751;50.816;-1.214;2022-11-20T06:10:02;100594.22;;;13.22;100.00
47983;BME280;33751;50.816;-1.214;2022-11-20T06:12:31;100600.44;;;13.55;100.00
47983;BME280;33751;50.816;-1.214;2022-11-20T06:14:58;100609.77;;;12.99;100.00
47983;BME280;33751;50.816;-1.214;2022-11-20T06:17:25;100613.56;;;13.27;100.00
47983;BME280;33751;50.816;-1.214;2022-11-20T06:19:52;100616.14;;;13.24;100.00
47983;BME280;33751;50.816;-1.214;2022-11-20T06:22:18;100630.97;;;13.08;100.00
47983;BME280;33751;50.816;-1.214;2022-11-20T06:24:46;100632.39;;;13.13;100.00
47983;BME280;33751;50.816;-1.214;2022-11-20T06:27:12;100638.99;;;12.78;100.00
47983;BME280;33751;50.816;-1.214;2022-11-20T06:29:39;100651.97;;;12.43;100.00
47983;BME280;33751;50.816;-1.214;2022-11-20T06:32:05;100655.01;;;12.73;100.00
47983;BME280;33751;50.816;-1.214;2022-11-20T06:34:32;100662.50;;;12.70;100.00
47983;BME280;33751;50.816;-1.214;2022-11-20T06:36:58;100664.70;;;12.56;100.00
47983;BME280;33751;50.816;-1.214;2022-11-20T06:39:25;100665.98;;;12.44;100.00
47983;BME280;33751;50.816;-1.214;2022-11-20T06:41:52;100665.40;;;12.29;100.00
47983;BME280;33751;50.816;-1.214;2022-11-20T06:44:18;100668.17;;;12.29;100.00
47983;BME280;33751;50.816;-1.214;2022-11-20T06:46:45;100673.01;;;12.21;100.00
47983;BME280;33751;50.816;-1.214;2022-11-20T06:49:11;100677.23;;;12.13;100.00
47983;BME280;33751;50.816;-1.214;2022-11-20T06:51:38;100685.30;;;11.99;100.00
47983;BME280;33751;50.816;-1.214;2022-11-20T06:54:04;100691.04;;;12.14;100.00
47983;BME280;33751;50.816;-1.214;2022-11-20T06:56:32;100691.37;;;12.07;100.00
47983;BME280;33751;50.816;-1.214;2022-11-20T06:58:58;100704.17;;;12.29;100.00
47983;BME280;33751;50.816;-1.214;2022-11-20T07:01:25;100704.96;;;12.24;100.00
47983;BME280;33751;50.816;-1.214;2022-11-20T07:03:52;100701.42;;;12.25;100.00
47983;BME280;33751;50.816;-1.214;2022-11-20T07:06:18;100699.07;;;11.90;100.00
47983;BME280;33751;50.816;-1.214;2022-11-20T07:08:45;100700.11;;;12.08;100.00
47983;BME280;33751;50.816;-1.214;2022-11-20T07:11:12;100698.47;;;12.25;100.00
47983;BME280;33751;50.816;-1.214;2022-11-20T07:13:39;100705.25;;;11.48;100.00
47983;BME280;33751;50.816;-1.214;2022-11-20T07:16:07;100705.57;;;12.00;100.00
47983;BME280;33751;50.816;-1.214;2022-11-20T07:18:35;100708.77;;;12.01;100.00
47983;BME280;33751;50.816;-1.214;2022-11-20T07:21:02;100710.94;;;11.88;100.00
47983;BME280;33751;50.816;-1.214;2022-11-20T07:23:29;100712.87;;;11.84;100.00
47983;BME280;33751;50.816;-1.214;2022-11-20T07:25:55;100715.03;;;11.73;100.00
47983;BME280;33751;50.816;-1.214;2022-11-20T07:28:22;100716.81;;;11.75;100.00
47983;BME280;33751;50.816;-1.214;2022-11-20T07:30:50;100718.93;;;11.68;100.00
47983;BME280;33751;50.816;-1.214;2022-11-20T07:33:17;100720.31;;;11.81;100.00
47983;BME280;33751;50.816;-1.214;2022-11-20T07:35:44;100723.98;;;11.85;100.00
47983;BME280;33751;50.816;-1.214;2022-11-20T07:38:10;100733.88;;;11.81;100.00
47983;BME280;33751;50.816;-1.214;2022-11-20T07:40:38;100737.79;;;11.63;100.00
47983;BME280;33751;50.816;-1.214;2022-11-20T07:43:05;100738.92;;;11.44;100.00
47983;BME280;33751;50.816;-1.214;2022-11-20T07:45:31;100750.80;;;11.57;100.00
47983;BME280;33751;50.816;-1.214;2022-11-20T07:47:58;100759.41;;;11.52;100.00
47983;BME280;33751;50.816;-1.214;2022-11-20T07:50:25;100772.53;;;11.60;100.00
47983;BME280;33751;50.816;-1.214;2022-11-20T07:52:51;100777.00;;;11.57;100.00
47983;BME280;33751;50.816;-1.214;2022-11-20T07:55:18;100782.62;;;11.34;100.00
47983;BME280;33751;50.816;-1.214;2022-11-20T07:57:45;100788.63;;;11.44;100.00
47983;BME280;33751;50.816;-1.214;2022-11-20T08:00:13;100795.16;;;11.33;100.00
47983;BME280;33751;50.816;-1.214;2022-11-20T08:02:41;100803.19;;;11.37;100.00
47983;BME280;33751;50.816;-1.214;2022-11-20T08:05:09;100801.59;;;11.43;100.00
47983;BME280;33751;50.816;-1.214;2022-11-20T08:07:38;100807.07;;;11.37;100.00
47983;BME280;33751;50.816;-1.214;2022-11-20T08:10:06;100805.71;;;11.30;100.00
47983;BME280;33751;50.816;-1.214;2022-11-20T08:12:33;100805.52;;;11.18;100.00
47983;BME280;33751;50.816;-1.214;2022-11-20T08:15:00;100806.11;;;11.08;100.00
47983;BME280;33751;50.816;-1.214;2022-11-20T08:17:26;100804.27;;;11.13;100.00
47983;BME280;33751;50.816;-1.214;2022-11-20T08:19:53;100804.71;;;11.13;100.00
47983;BME280;33751;50.816;-1.214;2022-11-20T08:22:19;100807.12;;;11.21;100.00
47983;BME280;33751;50.816;-1.214;2022-11-20T08:24:46;100813.05;;;11.09;100.00
47983;BME280;33751;50.816;-1.214;2022-11-20T08:27:12;100810.59;;;11.31;100.00
47983;BME280;33751;50.816;-1.214;2022-11-20T08:29:39;100814.64;;;11.30;100.00
47983;BME280;33751;50.816;-1.214;2022-11-20T08:32:06;100815.16;;;11.34;100.00
47983;BME280;33751;50.816;-1.214;2022-11-20T08:34:32;100817.48;;;11.64;100.00
47983;BME280;33751;50.816;-1.214;2022-11-20T08:37:01;100824.23;;;11.45;100.00
47983;BME280;33751;50.816;-1.214;2022-11-20T08:39:28;100830.92;;;11.76;100.00
47983;BME280;33751;50.816;-1.214;2022-11-20T08:41:55;100839.22;;;11.46;100.00
47983;BME280;33751;50.816;-1.214;2022-11-20T08:44:21;100842.72;;;11.41;100.00
47983;BME280;33751;50.816;-1.214;2022-11-20T08:46:48;100841.81;;;11.55;100.00
47983;BME280;33751;50.816;-1.214;2022-11-20T08:49:15;100848.17;;;11.59;100.00
47983;BME280;33751;50.816;-1.214;2022-11-20T08:51:42;100855.61;;;11.46;100.00
47983;BME280;33751;50.816;-1.214;2022-11-20T08:54:09;100862.77;;;11.45;100.00
47983;BME280;33751;50.816;-1.214;2022-11-20T08:56:35;100867.57;;;11.33;100.00
47983;BME280;33751;50.816;-1.214;2022-11-20T08:59:02;100867.22;;;11.65;100.00
47983;BME280;33751;50.816;-1.214;2022-11-20T09:01:29;100874.24;;;11.26;100.00
47983;BME280;33751;50.816;-1.214;2022-11-20T09:03:56;100884.97;;;11.26;100.00
47983;BME280;33751;50.816;-1.214;2022-11-20T09:06:23;100888.54;;;11.32;100.00
47983;BME280;33751;50.816;-1.214;2022-11-20T09:08:51;100886.91;;;11.52;100.00
47983;BME280;33751;50.816;-1.214;2022-11-20T09:11:18;100889.61;;;11.06;100.00
47983;BME280;33751;50.816;-1.214;2022-11-20T09:13:45;100886.02;;;11.85;100.00
47983;BME280;33751;50.816;-1.214;2022-11-20T09:16:12;100888.08;;;11.48;100.00
47983;BME280;33751;50.816;-1.214;2022-11-20T09:18:39;100890.42;;;11.53;100.00
47983;BME280;33751;50.816;-1.214;2022-11-20T09:21:07;100887.45;;;12.32;100.00
47983;BME280;33751;50.816;-1.214;2022-11-20T09:23:36;100882.01;;;12.08;100.00
47983;BME280;33751;50.816;-1.214;2022-11-20T09:26:05;100884.02;;;12.39;100.00
47983;BME280;33751;50.816;-1.214;2022-11-20T09:28:32;100889.52;;;12.55;100.00
47983;BME280;33751;50.816;-1.214;2022-11-20T09:30:59;100896.19;;;12.90;100.00
47983;BME280;33751;50.816;-1.214;2022-11-20T09:33:26;100900.94;;;12.22;100.00
47983;BME280;33751;50.816;-1.214;2022-11-20T09:35:53;100900.07;;;12.49;100.00
47983;BME280;33751;50.816;-1.214;2022-11-20T09:38:20;100896.73;;;11.87;100.00
47983;BME280;33751;50.816;-1.214;2022-11-20T09:40:52;100897.99;;;11.89;100.00
47983;BME280;33751;50.816;-1.214;2022-11-20T09:43:30;100896.96;;;12.28;100.00
47983;BME280;33751;50.816;-1.214;2022-11-20T09:46:05;100896.72;;;11.85;100.00
47983;BME280;33751;50.816;-1.214;2022-11-20T09:48:43;100898.77;;;12.28;100.00
47983;BME280;33751;50.816;-1.214;2022-11-20T09:51:20;100898.24;;;11.77;100.00
47983;BME280;33751;50.816;-1.214;2022-11-20T09:54:01;100899.16;;;12.06;100.00
47983;BME280;33751;50.816;-1.214;2022-11-20T09:56:29;100902.54;;;11.95;100.00
47983;BME280;33751;50.816;-1.214;2022-11-20T09:58:59;100909.23;;;11.97;100.00
47983;BME280;33751;50.816;-1.214;2022-11-20T10:01:31;100908.44;;;11.96;100.00
47983;BME280;33751;50.816;-1.214;2022-11-20T10:04:00;100913.11;;;11.97;100.00
47983;BME280;33751;50.816;-1.214;2022-11-20T10:06:30;100914.59;;;11.99;100.00
47983;BME280;33751;50.816;-1.214;2022-11-20T10:09:05;100917.09;;;12.13;100.00
47983;BME280;33751;50.816;-1.214;2022-11-20T10:11:38;100915.07;;;12.01;100.00
47983;BME280;33751;50.816;-1.214;2022-11-20T10:14:18;100913.30;;;11.97;100.00
47983;BME280;33751;50.816;-1.214;2022-11-20T10:16:56;100904.69;;;12.19;100.00
47983;BME280;33751;50.816;-1.214;2022-11-20T10:19:36;100903.48;;;12.36;100.00
47983;BME280;33751;50.816;-1.214;2022-11-20T10:22:12;100897.16;;;11.98;100.00
47983;BME280;33751;50.816;-1.214;2022-11-20T10:24:54;100895.86;;;12.32;100.00
47983;BME280;33751;50.816;-1.214;2022-11-20T10:27:35;100895.93;;;12.28;100.00
47983;BME280;33751;50.816;-1.214;2022-11-20T10:30:09;100895.21;;;12.80;100.00
47983;BME280;33751;50.816;-1.214;2022-11-20T10:32:39;100898.62;;;13.12;100.00
47983;BME280;33751;50.816;-1.214;2022-11-20T10:35:17;100898.45;;;13.22;100.00
47983;BME280;33751;50.816;-1.214;2022-11-20T10:37:48;100895.25;;;12.98;100.00
47983;BME280;33751;50.816;-1.214;2022-11-20T10:40:22;100889.82;;;13.44;100.00
47983;BME280;33751;50.816;-1.214;2022-11-20T10:42:53;100885.76;;;13.07;100.00
47983;BME280;33751;50.816;-1.214;2022-11-20T10:45:32;100886.06;;;13.30;100.00
47983;BME280;33751;50.816;-1.214;2022-11-20T10:48:10;100883.38;;;13.50;100.00
47983;BME280;33751;50.816;-1.214;2022-11-20T10:50:45;100883.89;;;13.14;100.00
47983;BME280;33751;50.816;-1.214;2022-11-20T10:53:22;100887.66;;;13.81;100.00
47983;BME280;33751;50.816;-1.214;2022-11-20T10:55:59;100890.79;;;13.95;100.00
47983;BME280;33751;50.816;-1.214;2022-11-20T10:58:35;100891.86;;;14.10;100.00
47983;BME280;33751;50.816;-1.214;2022-11-20T11:01:14;100892.47;;;13.91;100.00
47983;BME280;33751;50.816;-1.214;2022-11-20T11:03:41;100894.78;;;13.91;100.00
47983;BME280;33751;50.816;-1.214;2022-11-20T11:06:17;100897.26;;;14.29;100.00
47983;BME280;33751;50.816;-1.214;2022-11-20T11:08:48;100891.67;;;14.46;100.00
47983;BME280;33751;50.816;-1.214;2022-11-20T11:11:21;100892.87;;;14.26;100.00
47983;BME280;33751;50.816;-1.214;2022-11-20T11:13:49;100898.88;;;14.25;100.00
47983;BME280;33751;50.816;-1.214;2022-11-20T11:16:21;100902.13;;;14.41;100.00
47983;BME280;33751;50.816;-1.214;2022-11-20T11:18:48;100902.27;;;14.23;100.00
47983;BME280;33751;50.816;-1.214;2022-11-20T11:21:21;100913.16;;;14.25;100.00
47983;BME280;33751;50.816;-1.214;2022-11-20T11:23:57;100914.92;;;14.67;100.00
47983;BME280;33751;50.816;-1.214;2022-11-20T11:26:25;100913.98;;;14.65;100.00
47983;BME280;33751;50.816;-1.214;2022-11-20T11:28:54;100917.70;;;14.79;100.00
47983;BME280;33751;50.816;-1.214;2022-11-20T11:31:24;100926.26;;;14.25;100.00
47983;BME280;33751;50.816;-1.214;2022-11-20T11:33:51;100935.54;;;14.41;100.00
47983;BME280;33751;50.816;-1.214;2022-11-20T11:36:19;100937.23;;;14.52;100.00
47983;BME280;33751;50.816;-1.214;2022-11-20T11:38:51;100929.35;;;14.82;100.00
47983;BME280;33751;50.816;-1.214;2022-11-20T11:41:23;100924.39;;;14.85;100.00
47983;BME280;33751;50.816;-1.214;2022-11-20T11:43:53;100926.46;;;15.53;100.00
47983;BME280;33751;50.816;-1.214;2022-11-20T11:46:27;100918.95;;;15.47;100.00
47983;BME280;33751;50.816;-1.214;2022-11-20T11:48:56;100914.30;;;15.30;100.00
47983;BME280;33751;50.816;-1.214;2022-11-20T11:51:26;100917.34;;;15.08;100.00
47983;BME280;33751;50.816;-1.214;2022-11-20T11:53:54;100914.98;;;15.50;100.00
47983;BME280;33751;50.816;-1.214;2022-11-20T11:56:22;100912.58;;;15.27;100.00
47983;BME280;33751;50.816;-1.214;2022-11-20T11:58:51;100911.87;;;15.25;100.00
47983;BME280;33751;50.816;-1.214;2022-11-20T12:01:28;100906.51;;;15.49;100.00
47983;BME280;33751;50.816;-1.214;2022-11-20T12:04:02;100900.30;;;15.26;100.00
47983;BME280;33751;50.816;-1.214;2022-11-20T12:06:31;100900.74;;;15.20;100.00
47983;BME280;33751;50.816;-1.214;2022-11-20T12:09:03;100898.62;;;15.38;100.00
47983;BME280;33751;50.816;-1.214;2022-11-20T12:11:34;100899.20;;;15.47;100.00
47983;BME280;33751;50.816;-1.214;2022-11-20T12:14:11;100895.40;;;15.31;100.00
47983;BME280;33751;50.816;-1.214;2022-11-20T12:16:40;100894.73;;;15.32;100.00
47983;BME280;33751;50.816;-1.214;2022-11-20T12:19:09;100894.85;;;15.30;100.00
47983;BME280;33751;50.816;-1.214;2022-11-20T12:21:46;100897.73;;;15.39;100.00
47983;BME280;33751;50.816;-1.214;2022-11-20T12:24:53;100898.74;;;15.74;100.00
47983;BME280;33751;50.816;-1.214;2022-11-20T12:27:59;100893.96;;;15.70;100.00
47983;BME280;33751;50.816;-1.214;2022-11-20T12:30:32;100891.27;;;15.69;100.00
47983;BME280;33751;50.816;-1.214;2022-11-20T12:33:28;100895.33;;;15.90;100.00
47983;BME280;33751;50.816;-1.214;2022-11-20T12:36:07;100890.31;;;15.55;100.00
47983;BME280;33751;50.816;-1.214;2022-11-20T12:38:51;100892.60;;;15.89;100.00